createdAt,value
2017-10-06T14:39:42.166Z,3272
2017-10-06T14:40:42.177Z,4252
2017-10-06T14:41:42.187Z,5284
2017-10-06T14:42:42.201Z,6200
2017-10-06T14:43:42.533Z,6848
2017-10-06T14:44:42.232Z,12340
2017-10-06T14:45:42.243Z,13044
2017-10-06T14:46:42.252Z,6788
2017-10-06T14:47:42.282Z,5696
2017-10-06T14:48:42.279Z,4756
2017-10-06T14:49:42.355Z,4408
2017-10-06T14:50:42.313Z,3900
2017-10-06T14:51:42.326Z,3416
2017-10-06T14:52:42.347Z,2988
2017-10-06T14:53:42.361Z,2660
2017-10-06T14:54:42.377Z,2492
2017-10-06T14:55:42.387Z,2484
2017-10-06T14:56:42.424Z,2604
2017-10-06T14:57:42.422Z,2900
2017-10-06T14:58:42.441Z,3296
2017-10-06T14:59:42.461Z,3428
2017-10-06T15:00:42.473Z,3016
2017-10-06T15:01:42.493Z,2712
2017-10-06T15:02:42.501Z,2784
2017-10-06T15:03:42.523Z,2900
2017-10-06T15:04:42.553Z,3284
2017-10-06T15:05:42.602Z,3080
2017-10-06T15:06:42.579Z,3316
2017-10-06T15:07:42.595Z,3540
2017-10-06T15:08:42.607Z,4340
2017-10-06T15:09:42.627Z,6828
2017-10-06T15:10:42.954Z,5812
2017-10-06T15:11:42.660Z,6128
2017-10-06T15:12:42.679Z,6916
2017-10-06T15:13:42.999Z,8864
2017-10-06T15:14:43.026Z,10116
2017-10-06T15:15:42.727Z,10528
2017-10-06T15:16:42.752Z,9712
2017-10-06T15:17:42.762Z,11052
2017-10-06T15:18:42.785Z,10648
2017-10-06T15:19:42.798Z,9588
2017-10-06T15:20:42.816Z,9320
2017-10-06T15:21:42.888Z,7816
2017-10-06T15:22:42.860Z,7060
2017-10-06T15:23:42.870Z,6628
2017-10-06T15:24:42.896Z,6012
2017-10-06T15:25:42.910Z,5528
2017-10-06T15:26:42.933Z,5524
2017-10-06T15:27:42.953Z,5208
2017-10-06T15:28:42.961Z,4676
2017-10-06T15:29:42.991Z,3980
2017-10-06T15:30:43.000Z,3104
2017-10-06T15:31:43.022Z,2784
2017-10-06T15:32:43.047Z,2640
2017-10-06T15:33:43.055Z,2292
2017-10-06T15:34:43.075Z,1872
2017-10-06T15:35:43.089Z,1672
2017-10-06T15:36:43.107Z,1564
2017-10-06T15:37:43.127Z,1444
2017-10-06T15:38:43.150Z,1424
2017-10-06T15:39:43.169Z,1436
2017-10-06T15:40:43.235Z,1608
2017-10-06T15:41:43.205Z,1976
2017-10-06T15:42:43.224Z,2064
2017-10-06T15:43:43.237Z,1580
2017-10-06T15:44:43.568Z,1308
2017-10-06T15:45:43.276Z,1304
2017-10-06T15:46:43.301Z,1268
2017-10-06T15:47:43.316Z,1236
2017-10-06T15:48:43.344Z,1068
2017-10-06T15:49:43.348Z,976
2017-10-06T15:50:43.370Z,932
2017-10-06T15:51:43.697Z,868
2017-10-06T15:52:43.405Z,788
2017-10-06T15:53:43.420Z,684
2017-10-06T15:54:43.439Z,604
2017-10-06T15:55:43.523Z,552
2017-10-06T15:56:43.472Z,480
2017-10-06T15:57:43.826Z,416
2017-10-06T15:58:43.511Z,380
2017-10-06T15:59:43.527Z,352
2017-10-06T16:00:43.547Z,324
2017-10-06T16:01:43.571Z,320
2017-10-06T16:02:43.586Z,332
2017-10-06T16:03:43.602Z,344
2017-10-06T16:04:43.621Z,340
2017-10-06T16:05:43.637Z,340
2017-10-06T16:06:43.984Z,336
2017-10-06T16:07:43.672Z,324
2017-10-06T16:08:43.683Z,300
2017-10-06T16:09:43.713Z,284
2017-10-06T16:10:43.775Z,280
2017-10-06T16:11:43.746Z,272
2017-10-06T16:12:43.756Z,260
2017-10-06T16:13:43.781Z,252
2017-10-06T16:14:43.797Z,272
2017-10-06T16:15:43.812Z,320
2017-10-06T16:16:43.835Z,424
2017-10-06T16:17:43.857Z,580
2017-10-06T16:18:43.864Z,704
2017-10-06T16:19:43.890Z,720
2017-10-06T16:20:44.226Z,640
2017-10-06T16:21:43.913Z,556
2017-10-06T16:22:43.936Z,496
2017-10-06T16:23:43.950Z,424
2017-10-06T16:24:43.974Z,328
2017-10-06T16:25:44.039Z,292
2017-10-06T16:26:44.030Z,296
2017-10-06T16:27:44.017Z,284
2017-10-06T16:28:44.039Z,280
2017-10-06T16:29:44.053Z,264
2017-10-06T16:30:44.071Z,244
2017-10-06T16:31:44.089Z,224
2017-10-06T16:32:44.423Z,208
2017-10-06T16:33:44.126Z,188
2017-10-06T16:34:44.142Z,168
2017-10-06T16:35:44.162Z,144
2017-10-06T16:36:44.182Z,128
2017-10-06T16:37:44.194Z,116
2017-10-06T16:38:44.210Z,100
2017-10-06T16:39:44.226Z,104
2017-10-06T16:40:44.293Z,92
2017-10-06T16:41:44.262Z,84
2017-10-06T16:42:44.280Z,72
2017-10-06T16:43:44.294Z,60
2017-10-06T16:44:44.312Z,52
2017-10-06T16:45:44.388Z,48
2017-10-06T16:46:44.348Z,40
2017-10-06T16:47:44.369Z,32
2017-10-06T16:48:44.385Z,28
2017-10-06T16:49:44.402Z,24
2017-10-06T16:50:44.416Z,20
2017-10-06T16:51:44.438Z,20
2017-10-06T16:52:44.461Z,20
2017-10-06T16:53:44.469Z,16
2017-10-06T16:54:44.513Z,12
2017-10-06T16:55:44.510Z,12
2017-10-06T16:56:44.597Z,12
2017-10-06T16:57:44.540Z,8
2017-10-06T16:58:44.557Z,8
2017-10-06T16:59:44.579Z,4
2017-10-06T17:00:44.899Z,4
2017-10-06T17:01:44.613Z,4
2017-10-06T17:02:44.632Z,4
2017-10-06T17:03:44.660Z,0
2017-10-06T17:04:44.663Z,4
2017-10-06T17:05:44.674Z,4
2017-10-06T17:06:44.705Z,0
2017-10-06T17:07:44.722Z,4
2017-10-06T17:08:44.735Z,0
2017-10-06T17:09:44.746Z,0
2017-10-06T17:10:44.765Z,0
2017-10-06T17:11:44.835Z,0
2017-10-06T17:12:44.802Z,0
2017-10-06T17:13:44.813Z,0
2017-10-06T17:14:44.833Z,0
2017-10-06T17:15:44.853Z,0
2017-10-06T17:16:44.864Z,0
2017-10-06T17:17:44.897Z,0
2017-10-06T17:18:44.907Z,0
2017-10-06T17:19:44.924Z,0
2017-10-06T17:20:45.252Z,0
2017-10-06T17:21:44.956Z,0
2017-10-06T17:22:44.975Z,0
2017-10-06T17:23:45.310Z,0
2017-10-06T17:24:45.007Z,0
2017-10-06T17:25:45.029Z,0
2017-10-06T17:26:45.044Z,0
2017-10-06T17:27:45.061Z,0
2017-10-06T17:28:45.076Z,0
2017-10-06T17:29:45.145Z,0
2017-10-06T17:30:45.118Z,0
2017-10-06T17:31:45.139Z,0
2017-10-06T17:32:45.159Z,0
2017-10-06T17:33:45.173Z,0
2017-10-06T17:34:45.183Z,0
2017-10-06T17:35:45.201Z,0
2017-10-06T17:36:45.216Z,0
2017-10-06T17:37:45.241Z,0
2017-10-06T17:38:45.252Z,0
2017-10-06T17:39:45.271Z,0
2017-10-06T17:40:45.296Z,0
2017-10-06T17:41:45.305Z,0
2017-10-06T17:42:45.318Z,0
2017-10-06T17:43:45.342Z,0
2017-10-06T17:44:45.404Z,0
2017-10-06T17:45:45.394Z,0
2017-10-06T17:46:45.394Z,0
2017-10-06T17:47:45.417Z,0
2017-10-06T17:48:45.424Z,0
2017-10-06T17:49:45.448Z,0
2017-10-06T17:50:45.467Z,0
2017-10-06T17:51:45.484Z,0
2017-10-06T17:52:45.503Z,0
2017-10-06T17:53:45.518Z,0
2017-10-06T17:54:45.856Z,0
2017-10-06T17:55:45.557Z,0
2017-10-06T17:56:45.573Z,0
2017-10-06T17:57:45.587Z,0
2017-10-06T17:58:45.597Z,0
2017-10-06T17:59:45.619Z,0
2017-10-06T18:00:45.640Z,0
2017-10-06T18:01:45.653Z,0
2017-10-06T18:02:45.677Z,0
2017-10-06T18:03:45.690Z,0
2017-10-06T18:04:45.718Z,0
2017-10-06T18:05:45.726Z,0
2017-10-06T18:06:45.749Z,0
2017-10-06T18:07:46.073Z,0
2017-10-06T18:08:45.784Z,0
2017-10-06T18:09:45.823Z,0
2017-10-06T18:10:45.822Z,0
2017-10-06T18:11:45.834Z,0
2017-10-06T18:12:45.845Z,0
2017-10-06T18:13:45.872Z,0
2017-10-06T18:14:45.881Z,0
2017-10-06T18:15:45.902Z,0
2017-10-06T18:16:45.915Z,0
2017-10-06T18:17:45.942Z,0
2017-10-06T18:18:46.004Z,0
2017-10-06T18:19:45.967Z,0
2017-10-06T18:20:45.982Z,0
2017-10-06T18:21:46.004Z,0
2017-10-06T18:22:46.026Z,0
2017-10-06T18:23:46.060Z,0
2017-10-06T18:24:46.056Z,0
2017-10-06T18:25:46.071Z,0
2017-10-06T18:26:46.086Z,0
2017-10-06T18:27:46.111Z,0
2017-10-06T18:28:46.131Z,0
2017-10-06T18:29:46.149Z,0
2017-10-06T18:30:46.473Z,0
2017-10-06T18:31:46.181Z,0
2017-10-06T18:32:46.511Z,0
2017-10-06T18:33:46.260Z,0
2017-10-06T18:34:46.225Z,0
2017-10-06T18:35:46.250Z,0
2017-10-06T18:36:46.264Z,0
2017-10-06T18:37:46.285Z,0
2017-10-06T18:38:46.302Z,0
2017-10-06T18:39:46.315Z,0
2017-10-06T18:40:46.336Z,0
2017-10-06T18:41:46.354Z,0
2017-10-06T18:42:46.371Z,0
2017-10-06T18:43:46.696Z,0
2017-10-06T18:44:46.408Z,0
2017-10-06T18:45:46.413Z,0
2017-10-06T18:46:46.751Z,0
2017-10-06T18:47:46.451Z,0
2017-10-06T18:48:46.526Z,0
2017-10-06T18:49:46.487Z,0
2017-10-06T18:50:46.499Z,0
2017-10-06T18:51:46.519Z,0
2017-10-06T18:52:46.858Z,0
2017-10-06T18:53:46.554Z,0
2017-10-06T18:54:46.889Z,0
2017-10-06T18:55:46.901Z,0
2017-10-06T18:56:46.918Z,0
2017-10-06T18:57:46.624Z,0
2017-10-06T18:58:46.656Z,0
2017-10-06T18:59:46.657Z,0
2017-10-06T19:00:46.674Z,0
2017-10-06T19:01:46.694Z,0
2017-10-06T19:02:46.709Z,0
2017-10-06T19:03:46.782Z,0
2017-10-06T19:04:46.742Z,0
2017-10-06T19:05:46.754Z,0
2017-10-06T19:06:46.789Z,0
2017-10-06T19:07:47.141Z,0
2017-10-06T19:08:46.820Z,0
2017-10-06T19:09:46.831Z,0
2017-10-06T19:10:46.840Z,0
2017-10-06T19:11:46.860Z,0
2017-10-06T19:12:46.874Z,0
2017-10-06T19:13:46.900Z,0
2017-10-06T19:14:46.922Z,0
2017-10-06T19:15:46.934Z,0
2017-10-06T19:16:46.945Z,0
2017-10-06T19:17:46.960Z,0
2017-10-06T19:18:47.299Z,0
2017-10-06T19:19:47.726Z,0
2017-10-06T19:20:47.023Z,0
2017-10-06T19:21:47.050Z,0
2017-10-06T19:22:47.368Z,0
2017-10-06T19:23:47.096Z,0
2017-10-06T19:24:47.087Z,0
2017-10-06T19:25:47.108Z,0
2017-10-06T19:26:47.124Z,0
2017-10-06T19:27:47.138Z,0
2017-10-06T19:28:47.460Z,0
2017-10-06T19:29:47.176Z,0
2017-10-06T19:30:47.195Z,0
2017-10-06T19:31:47.206Z,0
2017-10-06T19:32:47.440Z,0
2017-10-06T19:33:47.239Z,0
2017-10-06T19:34:47.310Z,0
2017-10-06T19:35:47.589Z,0
2017-10-06T19:36:47.606Z,0
2017-10-06T19:37:47.337Z,0
2017-10-06T19:38:47.328Z,0
2017-10-06T19:39:47.345Z,0
2017-10-06T19:40:47.708Z,0
2017-10-06T19:41:47.379Z,0
2017-10-06T19:42:47.402Z,0
2017-10-06T19:43:47.725Z,0
2017-10-06T19:44:47.430Z,0
2017-10-06T19:45:47.450Z,0
2017-10-06T19:46:47.485Z,0
2017-10-06T19:47:47.480Z,0
2017-10-06T19:48:47.741Z,0
2017-10-06T19:49:47.899Z,0
2017-10-06T19:50:47.529Z,0
2017-10-06T19:51:47.554Z,0
2017-10-06T19:52:47.571Z,0
2017-10-06T19:53:47.589Z,0
2017-10-06T19:54:47.602Z,0
2017-10-06T19:55:47.624Z,0
2017-10-06T19:56:47.635Z,0
2017-10-06T19:57:47.653Z,0
2017-10-06T19:58:47.669Z,0
2017-10-06T19:59:47.687Z,0
2017-10-06T20:00:47.724Z,0
2017-10-06T20:01:47.730Z,0
2017-10-06T20:02:47.742Z,0
2017-10-06T20:03:48.078Z,0
2017-10-06T20:04:47.771Z,0
2017-10-06T20:05:48.166Z,0
2017-10-06T20:06:47.814Z,0
2017-10-06T20:07:47.823Z,0
2017-10-06T20:08:47.858Z,0
2017-10-06T20:09:47.859Z,0
2017-10-06T20:10:48.181Z,0
2017-10-06T20:11:47.890Z,0
2017-10-06T20:12:48.560Z,0
2017-10-06T20:13:47.930Z,0
2017-10-06T20:14:48.255Z,0
2017-10-06T20:15:47.959Z,0
2017-10-06T20:16:47.985Z,0
2017-10-06T20:17:48.045Z,0
2017-10-06T20:18:48.014Z,0
2017-10-06T20:19:48.025Z,0
2017-10-06T20:20:48.090Z,0
2017-10-06T20:21:48.689Z,0
2017-10-06T20:22:48.085Z,0
2017-10-06T20:23:48.094Z,0
2017-10-06T20:24:48.116Z,0
2017-10-06T20:25:48.124Z,0
2017-10-06T20:26:48.458Z,0
2017-10-06T20:27:48.161Z,0
2017-10-06T20:28:48.175Z,0
2017-10-06T20:29:48.193Z,0
2017-10-06T20:30:48.210Z,0
2017-10-06T20:31:48.226Z,0
2017-10-06T20:32:48.243Z,0
2017-10-06T20:33:48.258Z,0
2017-10-06T20:34:48.284Z,0
2017-10-06T20:35:48.349Z,0
2017-10-06T20:36:48.318Z,0
2017-10-06T20:37:48.328Z,0
2017-10-06T20:38:48.348Z,0
2017-10-06T20:39:48.369Z,0
2017-10-06T20:40:48.386Z,0
2017-10-06T20:41:48.403Z,0
2017-10-06T20:42:48.421Z,0
2017-10-06T20:43:48.436Z,0
2017-10-06T20:44:48.443Z,0
2017-10-06T20:45:48.472Z,0
2017-10-06T20:46:48.790Z,0
2017-10-06T20:47:48.502Z,0
2017-10-06T20:48:48.517Z,0
2017-10-06T20:49:48.532Z,0
2017-10-06T20:50:48.559Z,0
2017-10-06T20:51:48.626Z,0
2017-10-06T20:52:48.598Z,0
2017-10-06T20:53:48.621Z,0
2017-10-06T20:54:48.621Z,0
2017-10-06T20:55:48.641Z,0
2017-10-06T20:56:48.974Z,0
2017-10-06T20:57:48.982Z,0
2017-10-06T20:58:48.694Z,0
2017-10-06T20:59:48.705Z,0
2017-10-06T21:00:48.727Z,0
2017-10-06T21:01:48.749Z,0
2017-10-06T21:02:48.756Z,0
2017-10-06T21:03:48.773Z,0
2017-10-06T21:04:48.795Z,0
2017-10-06T21:05:48.813Z,0
2017-10-06T21:06:49.189Z,0
2017-10-06T21:07:48.847Z,0
2017-10-06T21:08:48.860Z,0
2017-10-06T21:09:48.885Z,0
2017-10-06T21:10:48.894Z,0
2017-10-06T21:11:48.913Z,0
2017-10-06T21:12:48.927Z,0
2017-10-06T21:13:49.266Z,0
2017-10-06T21:14:49.279Z,0
2017-10-06T21:15:48.987Z,0
2017-10-06T21:16:48.997Z,0
2017-10-06T21:17:49.225Z,0
2017-10-06T21:18:49.357Z,0
2017-10-06T21:19:49.360Z,0
2017-10-06T21:20:49.075Z,0
2017-10-06T21:21:49.137Z,0
2017-10-06T21:22:49.111Z,0
2017-10-06T21:23:49.123Z,0
2017-10-06T21:24:49.147Z,0
2017-10-06T21:25:49.155Z,0
2017-10-06T21:26:49.482Z,0
2017-10-06T21:27:49.194Z,0
2017-10-06T21:28:49.204Z,0
2017-10-06T21:29:49.223Z,0
2017-10-06T21:30:49.251Z,0
2017-10-06T21:31:49.263Z,0
2017-10-06T21:32:49.288Z,0
2017-10-06T21:33:49.313Z,0
2017-10-06T21:34:49.625Z,0
2017-10-06T21:35:49.342Z,0
2017-10-06T21:36:49.389Z,0
2017-10-06T21:37:49.364Z,0
2017-10-06T21:38:49.684Z,0
2017-10-06T21:39:49.392Z,0
2017-10-06T21:40:49.407Z,0
2017-10-06T21:41:49.429Z,0
2017-10-06T21:42:49.445Z,0
2017-10-06T21:43:49.776Z,0
2017-10-06T21:44:49.476Z,0
2017-10-06T21:45:49.506Z,0
2017-10-06T21:46:49.510Z,0
2017-10-06T21:47:49.747Z,0
2017-10-06T21:48:49.551Z,0
2017-10-06T21:49:49.574Z,0
2017-10-06T21:50:49.589Z,0
2017-10-06T21:51:49.603Z,0
2017-10-06T21:52:49.950Z,0
2017-10-06T21:53:49.638Z,0
2017-10-06T21:54:49.651Z,0
2017-10-06T21:55:49.671Z,0
2017-10-06T21:56:49.684Z,0
2017-10-06T21:57:49.703Z,0
2017-10-06T21:58:50.032Z,0
2017-10-06T21:59:49.741Z,0
2017-10-06T22:00:49.764Z,0
2017-10-06T22:01:49.793Z,0
2017-10-06T22:02:49.786Z,0
2017-10-06T22:03:49.810Z,0
2017-10-06T22:04:49.831Z,0
2017-10-06T22:05:49.842Z,0
2017-10-06T22:06:49.865Z,0
2017-10-06T22:07:49.923Z,0
2017-10-06T22:08:49.896Z,0
2017-10-06T22:09:49.909Z,0
2017-10-06T22:10:49.930Z,0
2017-10-06T22:11:49.953Z,0
2017-10-06T22:12:49.968Z,0
2017-10-06T22:13:49.977Z,0
2017-10-06T22:14:50.021Z,0
2017-10-06T22:15:50.014Z,0
2017-10-06T22:16:50.029Z,0
2017-10-06T22:17:50.353Z,0
2017-10-06T22:18:50.065Z,0
2017-10-06T22:19:50.079Z,0
2017-10-06T22:20:50.106Z,0
2017-10-06T22:21:50.121Z,0
2017-10-06T22:22:50.192Z,0
2017-10-06T22:23:50.153Z,0
2017-10-06T22:24:50.168Z,0
2017-10-06T22:25:50.187Z,0
2017-10-06T22:26:50.200Z,0
2017-10-06T22:27:50.538Z,0
2017-10-06T22:28:50.237Z,0
2017-10-06T22:29:50.259Z,0
2017-10-06T22:30:50.275Z,0
2017-10-06T22:31:50.288Z,0
2017-10-06T22:32:50.623Z,0
2017-10-06T22:33:50.321Z,0
2017-10-06T22:34:50.342Z,0
2017-10-06T22:35:50.373Z,0
2017-10-06T22:36:50.377Z,0
2017-10-06T22:37:50.694Z,0
2017-10-06T22:38:50.724Z,0
2017-10-06T22:39:50.733Z,0
2017-10-06T22:40:50.502Z,0
2017-10-06T22:41:50.465Z,0
2017-10-06T22:42:50.474Z,0
2017-10-06T22:43:50.491Z,0
2017-10-06T22:44:50.506Z,0
2017-10-06T22:45:50.529Z,0
2017-10-06T22:46:50.543Z,0
2017-10-06T22:47:50.559Z,0
2017-10-06T22:48:50.573Z,0
2017-10-06T22:49:50.901Z,0
2017-10-06T22:50:50.618Z,0
2017-10-06T22:51:50.635Z,0
2017-10-06T22:52:50.661Z,0
2017-10-06T22:53:50.663Z,0
2017-10-06T22:54:50.679Z,0
2017-10-06T22:55:50.703Z,0
2017-10-06T22:56:50.772Z,0
2017-10-06T22:57:50.743Z,0
2017-10-06T22:58:50.748Z,0
2017-10-06T22:59:50.774Z,0
2017-10-06T23:00:50.789Z,0
2017-10-06T23:01:50.802Z,0
2017-10-06T23:02:50.814Z,0
2017-10-06T23:03:50.833Z,0
2017-10-06T23:04:50.859Z,0
2017-10-06T23:05:50.871Z,0
2017-10-06T23:06:50.881Z,0
2017-10-06T23:07:51.221Z,0
2017-10-06T23:08:50.920Z,0
2017-10-06T23:09:50.944Z,0
2017-10-06T23:10:50.962Z,0
2017-10-06T23:11:51.034Z,0
2017-10-06T23:12:50.992Z,0
2017-10-06T23:13:51.014Z,0
2017-10-06T23:14:51.027Z,0
2017-10-06T23:15:51.042Z,0
2017-10-06T23:16:51.062Z,0
2017-10-06T23:17:51.081Z,0
2017-10-06T23:18:51.097Z,0
2017-10-06T23:19:51.110Z,0
2017-10-06T23:20:51.129Z,0
2017-10-06T23:21:51.149Z,0
2017-10-06T23:22:51.164Z,0
2017-10-06T23:23:51.184Z,0
2017-10-06T23:24:51.199Z,0
2017-10-06T23:25:51.211Z,0
2017-10-06T23:26:51.282Z,0
2017-10-06T23:27:51.256Z,0
2017-10-06T23:28:51.267Z,0
2017-10-06T23:29:51.281Z,0
2017-10-06T23:30:51.303Z,0
2017-10-06T23:31:51.321Z,0
2017-10-06T23:32:51.345Z,0
2017-10-06T23:33:51.668Z,0
2017-10-06T23:34:51.377Z,0
2017-10-06T23:35:51.398Z,0
2017-10-06T23:36:51.410Z,0
2017-10-06T23:37:51.738Z,0
2017-10-06T23:38:51.764Z,0
2017-10-06T23:39:51.770Z,0
2017-10-06T23:40:51.482Z,0
2017-10-06T23:41:51.810Z,0
2017-10-06T23:42:51.531Z,0
2017-10-06T23:43:51.533Z,0
2017-10-06T23:44:51.543Z,0
2017-10-06T23:45:51.560Z,0
2017-10-06T23:46:51.577Z,0
2017-10-06T23:47:51.594Z,0
2017-10-06T23:48:51.615Z,0
2017-10-06T23:49:51.629Z,0
2017-10-06T23:50:51.648Z,0
2017-10-06T23:51:51.666Z,0
2017-10-06T23:52:51.680Z,0
2017-10-06T23:53:51.702Z,0
2017-10-06T23:54:51.720Z,0
2017-10-06T23:55:51.736Z,0
2017-10-06T23:56:51.747Z,0
2017-10-06T23:57:52.089Z,0
2017-10-06T23:58:51.787Z,0
2017-10-06T23:59:52.109Z,0
